This is the latest recevied weather packets stored in our database for station/object N3AVN. If no packets are shown the sender has not sent any weather packets the latest 1 day(s).
| Time | Temp. | Humidity | Pressure | Rain* | Wind** | Luminosity | Snow |
|---|---|---|---|---|---|---|---|
| 1777991673 | 21.11° C | 64% | 1008.6 hPa | 0 mm | 0.89 m/s, 78° | 647 W/m² | - |
| 1777991370 | 20.56° C | 65% | 1008.7 hPa | 0 mm | 0.45 m/s, 0° | 602 W/m² | - |
| 1777991067 | 19.44° C | 67% | 1008.8 hPa | 0 mm | 1.79 m/s, 100° | 585 W/m² | - |
| 1777990764 | 19.44° C | 69% | 1008.8 hPa | 0 mm | 1.79 m/s, 142° | 694 W/m² | - |
| 1777990456 | 18.33° C | 72% | 1008.7 hPa | 0 mm | 1.34 m/s, 83° | 461 W/m² | - |
| 1777990153 | 17.78° C | 73% | 1008.6 hPa | 0 mm | 0.45 m/s, 120° | 513 W/m² | - |
| 1777989849 | 17.22° C | 74% | 1008.5 hPa | 0 mm | 1.79 m/s, 105° | 261 W/m² | - |
| 1777989546 | 17.22° C | 75% | 1008.3 hPa | 0 mm | 1.34 m/s, 111° | 439 W/m² | - |
| 1777989243 | 16.67° C | 77% | 1008.3 hPa | 0 mm | 0 m/s | 268 W/m² | - |
| 1777988939 | 16.11° C | 78% | 1008.4 hPa | 0 mm | 0 m/s | 199 W/m² | - |
| 1777988636 | 16.11° C | 79% | 1008.4 hPa | 0 mm | 1.34 m/s, 62° | 261 W/m² | - |
| 1777988332 | 16.11° C | 80% | 1008.4 hPa | 0 mm | 1.34 m/s, 190° | 209 W/m² | - |
| 1777988029 | 15.56° C | 82% | 1008.4 hPa | 0 mm | 0.89 m/s, 163° | 251 W/m² | - |
| 1777987725 | 15.56° C | 83% | 1008.5 hPa | 0 mm | 0 m/s | 172 W/m² | - |
| 1777987422 | 15° C | 84% | 1008.7 hPa | 0 mm | 0 m/s | 111 W/m² | - |
| 1777987119 | 15° C | 84% | 1008.7 hPa | 0 mm | 0.89 m/s, 248° | 160 W/m² | - |
| 1777986817 | 14.44° C | 85% | 1008.7 hPa | 0 mm | 0.89 m/s, 75° | 136 W/m² | - |
| 1777986514 | 14.44° C | 87% | 1009.1 hPa | 0 mm | 0 m/s | 137 W/m² | - |
| 1777986212 | 14.44° C | 86% | 1008.7 hPa | 0 mm | 0.89 m/s, 217° | 93 W/m² | - |
| 1777985909 | 14.44° C | 84% | 1008.6 hPa | 0 mm | 1.79 m/s, 81° | 43 W/m² | - |
| 1777985606 | 15° C | 80% | 1009.2 hPa | 0 mm | 2.68 m/s, 258° | 65 W/m² | - |
| 1777985304 | 15.56° C | 79% | 1009.3 hPa | 0 mm | 0.89 m/s, 32° | 141 W/m² | - |
| 1777985001 | 15° C | 80% | 1009.1 hPa | 0 mm | 0 m/s | 147 W/m² | - |
| 1777984697 | 15° C | 79% | 1008.8 hPa | 0 mm | 1.34 m/s, 238° | 104 W/m² | - |
| 1777984393 | 15° C | 79% | 1009.1 hPa | 0 mm | 2.24 m/s, 124° | 113 W/m² | - |
* Rain latest hour (hover to see other rain measurements)
** Current wind speed in m/s (hover to see current wind gust speed)